Time;durP1;ratioP1;P1;durP2;ratioP2;P2;SDS_P1;SDS_P2;PMS_P1;PMS_P2;Temp;Humidity;BMP_temperature;BMP_pressure;BME280_temperature;BME280_humidity;BME280_pressure;Samples;Min_cycle;Max_cycle;Signal;HPM_P1;HPM_P2
2022/03/27 00:02:26;;;;;;;22.50;14.38;;;;;;;;;;5053957;28;20492;-72
2022/03/27 00:04:52;;;;;;;20.13;14.07;;;;;;;;;;5061266;28;20394;-72
2022/03/27 00:07:18;;;;;;;21.70;13.48;;;;;;;;;;5074107;28;20477;-71
2022/03/27 00:09:44;;;;;;;26.50;14.35;;;;;;;;;;5074574;28;20029;-73
2022/03/27 00:12:10;;;;;;;28.63;14.45;;;;;;;;;;5065532;28;20028;-72
2022/03/27 00:14:37;;;;;;;24.08;14.32;;;;;;;;;;5071691;28;20020;-71
2022/03/27 00:17:03;;;;;;;24.30;14.50;;;;;;;;;;5051871;28;20067;-75
2022/03/27 00:19:31;;;;;;;33.83;18.65;;;;;;;;;;5052397;28;20025;-73
2022/03/27 00:21:57;;;;;;;27.60;16.45;;;;;;;;;;5056262;28;20033;-72
2022/03/27 00:24:24;;;;;;;26.90;15.02;;;;;;;;;;5068735;28;20083;-71
2022/03/27 00:26:50;;;;;;;26.60;14.82;;;;;;;;;;5071894;28;20525;-73
2022/03/27 00:29:17;;;;;;;22.45;14.15;;;;;;;;;;5073084;28;20036;-72
2022/03/27 00:31:44;;;;;;;24.98;15.20;;;;;;;;;;5070755;28;20393;-73
2022/03/27 00:34:11;;;;;;;23.80;13.65;;;;;;;;;;5064692;28;20128;-72
2022/03/27 00:36:37;;;;;;;24.33;14.88;;;;;;;;;;5072427;28;20078;-72
2022/03/27 00:39:03;;;;;;;24.85;14.73;;;;;;;;;;5073032;28;20418;-73
2022/03/27 00:41:30;;;;;;;25.92;15.18;;;;;;;;;;5070676;28;20508;-72
2022/03/27 00:43:56;;;;;;;22.92;14.82;;;;;;;;;;5070548;28;20016;-73
2022/03/27 00:46:22;;;;;;;22.92;15.02;;;;;;;;;;5072582;28;20056;-73
2022/03/27 00:48:48;;;;;;;25.35;15.07;;;;;;;;;;5072094;28;20025;-73
2022/03/27 00:51:14;;;;;;;27.83;15.43;;;;;;;;;;5072027;28;20032;-71
2022/03/27 00:53:40;;;;;;;22.98;14.77;;;;;;;;;;5069982;28;20028;-70
2022/03/27 00:56:06;;;;;;;23.15;14.40;;;;;;;;;;5072427;28;20060;-76
2022/03/27 00:58:32;;;;;;;22.77;15.50;;;;;;;;;;5072279;28;20028;-72
2022/03/27 01:01:15;;;;;;;24.35;14.45;;;;;;;;;;5073832;28;20024;-72
2022/03/27 01:03:41;;;;;;;20.80;14.68;;;;;;;;;;5055340;28;20083;-71
2022/03/27 01:06:18;;;;;;;23.35;14.27;;;;;;;;;;5065875;28;20525;-71
2022/03/27 01:11:29;;;;;;;29.67;15.57;;;;;;;;;;5074964;28;20027;-70
2022/03/27 01:13:58;;;;;;;22.23;15.23;;;;;;;;;;5068958;28;20094;-75
2022/03/27 01:16:32;;;;;;;24.73;16.17;;;;;;;;;;5060715;28;20116;-71
2022/03/27 01:19:00;;;;;;;24.15;15.20;;;;;;;;;;5052808;28;20025;-74
2022/03/27 01:21:26;;;;;;;27.67;16.55;;;;;;;;;;5055945;28;20029;-72
2022/03/27 01:23:52;;;;;;;27.50;15.50;;;;;;;;;;5060755;28;20017;-71
2022/03/27 01:26:18;;;;;;;25.23;15.82;;;;;;;;;;5075520;28;20057;-71
2022/03/27 01:28:44;;;;;;;24.35;15.43;;;;;;;;;;5075502;28;20032;-71
2022/03/27 01:31:10;;;;;;;25.90;15.38;;;;;;;;;;5075950;28;20044;-75
2022/03/27 01:33:38;;;;;;;24.20;14.82;;;;;;;;;;5077425;28;20029;-72
2022/03/27 01:36:05;;;;;;;23.73;14.90;;;;;;;;;;5057510;28;20086;-72
2022/03/27 01:38:31;;;;;;;24.40;15.68;;;;;;;;;;5073926;28;20031;-72
2022/03/27 01:40:57;;;;;;;24.77;15.02;;;;;;;;;;5076475;28;20016;-73
2022/03/27 01:43:25;;;;;;;28.05;15.35;;;;;;;;;;5075865;28;20103;-70
2022/03/27 01:45:51;;;;;;;24.95;14.77;;;;;;;;;;5063782;28;20138;-72
2022/03/27 01:48:19;;;;;;;28.88;15.73;;;;;;;;;;5066584;28;20103;-73
2022/03/27 01:50:57;;;;;;;24.15;15.40;;;;;;;;;;5076980;28;20032;-71
2022/03/27 01:53:23;;;;;;;25.65;15.55;;;;;;;;;;5075135;28;20032;-72
2022/03/27 01:55:49;;;;;;;28.75;15.70;;;;;;;;;;5069937;28;20036;-74
2022/03/27 01:58:15;;;;;;;24.42;15.80;;;;;;;;;;5059451;28;20017;-72
2022/03/27 02:00:45;;;;;;;25.27;14.93;;;;;;;;;;5074707;28;20032;-72
2022/03/27 02:03:12;;;;;;;24.55;16.15;;;;;;;;;;5072518;28;20054;-72
2022/03/27 02:05:38;;;;;;;31.75;16.83;;;;;;;;;;5073759;28;20371;-73
2022/03/27 02:08:04;;;;;;;24.70;15.00;;;;;;;;;;5056016;28;20100;-73
2022/03/27 02:10:30;;;;;;;24.30;15.38;;;;;;;;;;5072683;28;20497;-72
2022/03/27 02:12:57;;;;;;;27.63;15.90;;;;;;;;;;5074728;28;20024;-73
2022/03/27 02:15:24;;;;;;;24.92;15.93;;;;;;;;;;5065467;28;20048;-72
2022/03/27 02:17:51;;;;;;;31.33;16.30;;;;;;;;;;5057310;28;20040;-70
2022/03/27 02:20:18;;;;;;;28.88;15.63;;;;;;;;;;5055149;28;20032;-73
2022/03/27 02:22:44;;;;;;;26.83;15.50;;;;;;;;;;5054804;28;20505;-72
2022/03/27 02:25:10;;;;;;;26.85;16.30;;;;;;;;;;5053878;28;20059;-74
2022/03/27 02:27:36;;;;;;;31.15;16.00;;;;;;;;;;5054724;28;20031;-72
2022/03/27 02:30:07;;;;;;;27.88;16.10;;;;;;;;;;5055827;28;20564;-74
2022/03/27 02:32:33;;;;;;;31.65;17.05;;;;;;;;;;5073319;28;20044;-70
2022/03/27 02:34:59;;;;;;;28.40;15.93;;;;;;;;;;5074292;28;20025;-72
2022/03/27 02:37:25;;;;;;;28.38;17.40;;;;;;;;;;5057082;28;20041;-73
2022/03/27 02:39:51;;;;;;;27.60;15.73;;;;;;;;;;5054758;28;20025;-73
2022/03/27 02:42:17;;;;;;;24.55;16.02;;;;;;;;;;5055122;28;20032;-74
2022/03/27 02:44:44;;;;;;;29.17;16.48;;;;;;;;;;5055502;28;20021;-72
2022/03/27 02:47:10;;;;;;;29.52;16.25;;;;;;;;;;5059825;28;20029;-72
2022/03/27 02:49:36;;;;;;;26.63;16.38;;;;;;;;;;5074109;28;20032;-73
2022/03/27 02:52:02;;;;;;;26.92;15.85;;;;;;;;;;5072416;28;20390;-72
2022/03/27 02:54:28;;;;;;;29.88;16.27;;;;;;;;;;5076605;28;20103;-71
2022/03/27 02:56:56;;;;;;;32.15;16.83;;;;;;;;;;5072408;28;20075;-74
2022/03/27 02:59:25;;;;;;;24.50;16.13;;;;;;;;;;5054612;28;20017;-71
2022/03/27 03:01:52;;;;;;;25.55;16.35;;;;;;;;;;5053501;28;20474;-72
2022/03/27 03:04:18;;;;;;;23.30;16.30;;;;;;;;;;5054097;28;20040;-73
2022/03/27 03:06:44;;;;;;;28.13;16.67;;;;;;;;;;5055649;28;20112;-71
2022/03/27 03:09:11;;;;;;;34.90;22.00;;;;;;;;;;5051975;28;20051;-71
2022/03/27 03:11:37;;;;;;;44.35;25.17;;;;;;;;;;5054251;28;20029;-75
2022/03/27 03:14:04;;;;;;;33.65;18.08;;;;;;;;;;5053175;28;20039;-73
2022/03/27 03:16:30;;;;;;;30.30;16.95;;;;;;;;;;5065329;28;20036;-72
2022/03/27 03:18:56;;;;;;;26.65;16.35;;;;;;;;;;5074223;28;20362;-72
2022/03/27 03:21:25;;;;;;;27.40;16.15;;;;;;;;;;5073266;28;20039;-72
2022/03/27 03:23:51;;;;;;;26.52;16.60;;;;;;;;;;5071786;28;20370;-71
2022/03/27 03:26:22;;;;;;;25.38;16.50;;;;;;;;;;5064853;28;20378;-71
2022/03/27 03:28:49;;;;;;;27.98;16.30;;;;;;;;;;5053575;28;20021;-71
2022/03/27 03:31:15;;;;;;;26.63;16.58;;;;;;;;;;5052060;28;20555;-73
2022/03/27 03:33:43;;;;;;;28.42;15.88;;;;;;;;;;5054382;28;20037;-72
2022/03/27 03:36:10;;;;;;;25.77;16.38;;;;;;;;;;5054278;28;20040;-73
2022/03/27 03:38:36;;;;;;;28.63;17.08;;;;;;;;;;5073314;28;20020;-72
2022/03/27 03:41:03;;;;;;;33.33;17.52;;;;;;;;;;5075639;28;20421;-71
2022/03/27 03:43:30;;;;;;;31.25;16.67;;;;;;;;;;5054315;28;20028;-71
2022/03/27 03:45:56;;;;;;;30.30;17.08;;;;;;;;;;5060607;28;20482;-72
2022/03/27 03:48:22;;;;;;;30.15;17.48;;;;;;;;;;5052794;28;20037;-74
2022/03/27 03:50:48;;;;;;;31.17;17.85;;;;;;;;;;5068636;28;20046;-71
2022/03/27 03:53:15;;;;;;;27.30;17.48;;;;;;;;;;5052818;28;20029;-71
2022/03/27 03:55:41;;;;;;;30.83;18.05;;;;;;;;;;5055464;28;20040;-73
2022/03/27 03:58:07;;;;;;;35.55;17.88;;;;;;;;;;5070819;28;20023;-73
2022/03/27 04:00:33;;;;;;;26.70;16.67;;;;;;;;;;5064364;28;20017;-73
2022/03/27 04:03:01;;;;;;;29.20;17.10;;;;;;;;;;5064490;28;20033;-72
2022/03/27 04:05:27;;;;;;;27.70;17.42;;;;;;;;;;5063901;28;20016;-72
2022/03/27 04:07:53;;;;;;;31.75;17.48;;;;;;;;;;5057586;28;20029;-70
2022/03/27 04:10:20;;;;;;;29.33;18.30;;;;;;;;;;5059095;28;20024;-71
2022/03/27 04:12:47;;;;;;;28.90;16.52;;;;;;;;;;5059695;28;20021;-72
2022/03/27 04:15:13;;;;;;;26.85;17.05;;;;;;;;;;5056143;28;20394;-71
2022/03/27 04:17:44;;;;;;;33.50;18.33;;;;;;;;;;5059262;28;20043;-73
2022/03/27 04:20:10;;;;;;;33.15;17.65;;;;;;;;;;5056274;28;20021;-72
2022/03/27 04:22:36;;;;;;;29.63;17.65;;;;;;;;;;5056010;28;20029;-74
2022/03/27 04:25:03;;;;;;;31.92;18.08;;;;;;;;;;5053556;28;20017;-72
2022/03/27 04:27:31;;;;;;;30.10;18.30;;;;;;;;;;5058331;28;20029;-73
2022/03/27 04:29:57;;;;;;;30.98;18.02;;;;;;;;;;5056362;28;20049;-71
2022/03/27 04:32:23;;;;;;;35.42;17.85;;;;;;;;;;5057355;28;20033;-73
2022/03/27 04:34:50;;;;;;;31.40;18.90;;;;;;;;;;5065068;28;20377;-72
2022/03/27 04:37:16;;;;;;;31.70;17.80;;;;;;;;;;5063864;28;20455;-70
2022/03/27 04:39:43;;;;;;;31.25;18.17;;;;;;;;;;5066928;28;20044;-71
2022/03/27 04:42:09;;;;;;;30.20;17.92;;;;;;;;;;5072401;28;20450;-72
2022/03/27 04:44:35;;;;;;;33.20;17.58;;;;;;;;;;5061355;28;20024;-71
2022/03/27 04:47:01;;;;;;;28.42;17.20;;;;;;;;;;5062675;28;20111;-72
2022/03/27 04:49:27;;;;;;;41.55;17.98;;;;;;;;;;5059277;28;20016;-71
2022/03/27 04:51:55;;;;;;;29.55;17.52;;;;;;;;;;5051733;28;20033;-71
2022/03/27 04:54:21;;;;;;;29.05;17.30;;;;;;;;;;5053403;28;20083;-71
2022/03/27 04:56:48;;;;;;;33.72;18.40;;;;;;;;;;5063932;28;20036;-72
2022/03/27 04:59:14;;;;;;;37.25;18.02;;;;;;;;;;5055781;28;20017;-72
2022/03/27 05:01:41;;;;;;;30.67;17.83;;;;;;;;;;5070820;28;20388;-70
2022/03/27 05:04:07;;;;;;;29.23;17.67;;;;;;;;;;5074896;28;20029;-71
2022/03/27 05:06:34;;;;;;;37.15;18.67;;;;;;;;;;5058184;28;20032;-70
2022/03/27 05:09:00;;;;;;;29.17;17.75;;;;;;;;;;5062543;28;20032;-71
2022/03/27 05:11:28;;;;;;;33.25;17.77;;;;;;;;;;5056163;28;20017;-72
2022/03/27 05:13:56;;;;;;;28.65;17.88;;;;;;;;;;5055983;28;20113;-71
2022/03/27 05:16:22;;;;;;;33.33;19.38;;;;;;;;;;5054751;28;20490;-72
2022/03/27 05:18:49;;;;;;;29.85;19.00;;;;;;;;;;5059797;28;20390;-70
2022/03/27 05:21:15;;;;;;;42.15;20.13;;;;;;;;;;5062414;28;20390;-73
2022/03/27 05:23:42;;;;;;;33.42;19.50;;;;;;;;;;5063288;28;20025;-71
2022/03/27 05:26:08;;;;;;;30.58;19.50;;;;;;;;;;5056479;28;20029;-72
2022/03/27 05:28:34;;;;;;;30.90;20.30;;;;;;;;;;5055159;28;20100;-75
2022/03/27 05:31:02;;;;;;;33.97;20.83;;;;;;;;;;5059644;28;20505;-69
2022/03/27 05:33:29;;;;;;;31.60;20.10;;;;;;;;;;5066399;28;20374;-71
2022/03/27 05:35:55;;;;;;;30.23;19.55;;;;;;;;;;5061272;28;20029;-74
2022/03/27 05:38:21;;;;;;;33.60;20.73;;;;;;;;;;5068069;28;20542;-78
2022/03/27 05:40:47;;;;;;;31.60;20.17;;;;;;;;;;5061660;28;20036;-74
2022/03/27 05:43:13;;;;;;;31.00;20.20;;;;;;;;;;5056909;28;20025;-72
2022/03/27 05:45:40;;;;;;;30.67;20.02;;;;;;;;;;5056085;28;20056;-78
2022/03/27 05:48:07;;;;;;;29.65;20.75;;;;;;;;;;5062311;28;20070;-75
2022/03/27 05:50:33;;;;;;;29.25;19.90;;;;;;;;;;5070219;28;20036;-75
2022/03/27 05:52:59;;;;;;;32.85;20.33;;;;;;;;;;5070536;28;20037;-76
2022/03/27 05:55:25;;;;;;;31.48;20.67;;;;;;;;;;5064739;28;20024;-74
2022/03/27 05:57:51;;;;;;;34.85;21.42;;;;;;;;;;5064482;28;20036;-74
2022/03/27 06:00:21;;;;;;;35.28;21.35;;;;;;;;;;5055235;28;20042;-73
2022/03/27 06:02:47;;;;;;;31.25;21.33;;;;;;;;;;5055641;28;20059;-76
2022/03/27 06:05:13;;;;;;;33.38;21.83;;;;;;;;;;5066504;28;20025;-73
2022/03/27 06:07:43;;;;;;;32.83;22.10;;;;;;;;;;5057814;28;20020;-76
2022/03/27 06:10:10;;;;;;;33.45;21.73;;;;;;;;;;5062016;28;20494;-74
2022/03/27 06:12:36;;;;;;;31.80;21.25;;;;;;;;;;5058560;28;20108;-72
2022/03/27 06:15:03;;;;;;;31.73;21.45;;;;;;;;;;5059244;28;20025;-76
2022/03/27 06:17:29;;;;;;;29.13;21.08;;;;;;;;;;5068339;28;20492;-75
2022/03/27 06:19:55;;;;;;;31.67;21.58;;;;;;;;;;5058819;28;20434;-71
2022/03/27 06:22:22;;;;;;;39.00;22.20;;;;;;;;;;5065090;28;20024;-76
2022/03/27 06:24:48;;;;;;;34.17;21.60;;;;;;;;;;5057399;28;20037;-73
2022/03/27 06:27:14;;;;;;;29.70;20.77;;;;;;;;;;5056399;28;20029;-76
2022/03/27 06:29:40;;;;;;;31.25;22.17;;;;;;;;;;5068424;28;20401;-78
2022/03/27 06:32:07;;;;;;;28.92;20.95;;;;;;;;;;5067712;28;20024;-83
2022/03/27 06:34:33;;;;;;;28.33;21.08;;;;;;;;;;5065536;28;20016;-83
2022/03/27 06:36:59;;;;;;;32.25;21.48;;;;;;;;;;5061020;28;20072;-86
2022/03/27 06:39:25;;;;;;;29.65;22.42;;;;;;;;;;5067095;28;20021;-81
2022/03/27 06:41:51;;;;;;;32.70;22.40;;;;;;;;;;5067888;28;20020;-78
2022/03/27 06:44:17;;;;;;;32.08;22.50;;;;;;;;;;5055886;28;20074;-75
2022/03/27 06:46:44;;;;;;;29.75;22.88;;;;;;;;;;5058849;28;20509;-74
2022/03/27 06:49:10;;;;;;;34.33;26.15;;;;;;;;;;5066865;28;20032;-78
2022/03/27 06:51:36;;;;;;;34.95;25.67;;;;;;;;;;5060450;28;20553;-80
2022/03/27 06:54:03;;;;;;;30.48;22.50;;;;;;;;;;5056579;28;20382;-85
2022/03/27 06:56:29;;;;;;;29.67;22.40;;;;;;;;;;5055939;28;20067;-76
2022/03/27 06:58:56;;;;;;;31.60;22.92;;;;;;;;;;5061752;28;20021;-74
2022/03/27 07:04:07;;;;;;;31.88;22.17;;;;;;;;;;5064270;28;20151;-74
2022/03/27 07:06:33;;;;;;;30.58;21.92;;;;;;;;;;5058452;28;20028;-75
2022/03/27 07:09:00;;;;;;;31.60;21.58;;;;;;;;;;5069810;28;20020;-77
2022/03/27 07:11:29;;;;;;;32.90;20.75;;;;;;;;;;5061371;28;20067;-81
2022/03/27 07:13:55;;;;;;;30.55;21.00;;;;;;;;;;5068780;28;20028;-75
2022/03/27 07:16:21;;;;;;;34.22;20.80;;;;;;;;;;5065374;28;20546;-75
2022/03/27 07:18:49;;;;;;;31.90;21.33;;;;;;;;;;5052213;28;20049;-79
2022/03/27 07:21:16;;;;;;;26.52;19.55;;;;;;;;;;5067092;28;20040;-76
2022/03/27 07:23:42;;;;;;;40.35;20.77;;;;;;;;;;5056247;28;20119;-72
2022/03/27 07:26:08;;;;;;;32.08;20.90;;;;;;;;;;5057199;28;20036;-74
2022/03/27 07:28:35;;;;;;;30.17;20.33;;;;;;;;;;5057982;28;20028;-73
2022/03/27 07:31:02;;;;;;;33.05;19.80;;;;;;;;;;5063956;28;20052;-74
2022/03/27 07:33:28;;;;;;;32.40;20.38;;;;;;;;;;5057916;28;20063;-74
2022/03/27 07:35:55;;;;;;;26.58;18.92;;;;;;;;;;5060599;28;20094;-73
2022/03/27 07:38:21;;;;;;;22.10;17.02;;;;;;;;;;5068807;28;20024;-79
2022/03/27 07:40:47;;;;;;;26.20;18.00;;;;;;;;;;5058071;28;20541;-73
2022/03/27 07:43:14;;;;;;;28.52;19.63;;;;;;;;;;5062870;28;20016;-72
2022/03/27 07:45:40;;;;;;;29.67;19.38;;;;;;;;;;5069100;28;20025;-72
2022/03/27 07:48:06;;;;;;;32.17;20.48;;;;;;;;;;5067138;28;20028;-74
2022/03/27 07:50:33;;;;;;;25.42;17.40;;;;;;;;;;5053694;28;20028;-78
2022/03/27 07:53:00;;;;;;;25.13;17.55;;;;;;;;;;5067667;28;20020;-78
2022/03/27 07:55:26;;;;;;;28.08;17.60;;;;;;;;;;5066187;28;20043;-79
2022/03/27 07:57:52;;;;;;;23.73;16.65;;;;;;;;;;5060968;28;20063;-76
2022/03/27 08:00:18;;;;;;;29.27;17.27;;;;;;;;;;5057381;28;20244;-72
2022/03/27 08:02:46;;;;;;;31.92;16.60;;;;;;;;;;5060942;28;20021;-70
2022/03/27 08:05:12;;;;;;;25.23;15.70;;;;;;;;;;5058675;28;20103;-70
2022/03/27 08:07:38;;;;;;;28.25;16.98;;;;;;;;;;5055288;28;20108;-70
2022/03/27 08:10:05;;;;;;;37.97;16.98;;;;;;;;;;5064361;28;20397;-77
2022/03/27 08:12:31;;;;;;;30.33;16.58;;;;;;;;;;5060869;28;20024;-70
2022/03/27 08:14:57;;;;;;;23.65;15.93;;;;;;;;;;5051476;28;20028;-70
2022/03/27 08:17:23;;;;;;;26.52;15.93;;;;;;;;;;5067326;28;20027;-71
2022/03/27 08:19:50;;;;;;;23.30;15.27;;;;;;;;;;5066016;28;20088;-70
2022/03/27 08:22:17;;;;;;;26.60;16.30;;;;;;;;;;5051502;28;20037;-71
2022/03/27 08:24:43;;;;;;;23.70;15.50;;;;;;;;;;5055527;28;20474;-69
2022/03/27 08:27:09;;;;;;;24.52;15.50;;;;;;;;;;5056629;28;20081;-70
2022/03/27 08:29:36;;;;;;;23.10;15.48;;;;;;;;;;5061896;28;20037;-72
2022/03/27 08:32:04;;;;;;;29.15;16.23;;;;;;;;;;5075379;28;20107;-71
2022/03/27 08:34:30;;;;;;;25.67;15.27;;;;;;;;;;5069395;28;20013;-70
2022/03/27 08:36:57;;;;;;;26.10;15.55;;;;;;;;;;5064411;28;20123;-72
2022/03/27 08:39:23;;;;;;;22.45;14.85;;;;;;;;;;5066114;28;20023;-70
2022/03/27 08:41:51;;;;;;;23.33;14.35;;;;;;;;;;5066648;28;20108;-70
2022/03/27 08:44:21;;;;;;;22.98;14.45;;;;;;;;;;5056758;28;20027;-73
2022/03/27 08:46:48;;;;;;;24.05;15.40;;;;;;;;;;5068926;28;20024;-72
2022/03/27 08:49:26;;;;;;;28.75;15.07;;;;;;;;;;5066057;28;20031;-72
2022/03/27 08:52:02;;;;;;;25.25;16.20;;;;;;;;;;5062011;28;20078;-72
2022/03/27 08:54:48;;;;;;;27.90;15.45;;;;;;;;;;5062668;28;20021;-72
2022/03/27 08:57:14;;;;;;;23.65;15.20;;;;;;;;;;5056485;28;20512;-74
2022/03/27 08:59:41;;;;;;;27.90;15.90;;;;;;;;;;5070831;28;20028;-75
2022/03/27 09:02:08;;;;;;;25.63;14.82;;;;;;;;;;5059527;28;20086;-76
2022/03/27 09:04:41;;;;;;;28.15;15.00;;;;;;;;;;5067081;28;20074;-77
2022/03/27 09:07:07;;;;;;;;;;;;;;;;;;5059414;28;20102;-74
2022/03/27 09:09:36;;;;;;;24.60;14.05;;;;;;;;;;5062511;28;19967;-73
2022/03/27 09:12:04;;;;;;;24.45;13.63;;;;;;;;;;5065564;28;20036;-76
2022/03/27 09:14:34;;;;;;;20.48;12.23;;;;;;;;;;5058644;28;20028;-73
2022/03/27 09:17:01;;;;;;;17.45;11.73;;;;;;;;;;5061149;28;20524;-72
2022/03/27 09:19:35;;;;;;;17.83;11.82;;;;;;;;;;5064775;28;20044;-73
2022/03/27 09:22:13;;;;;;;18.25;12.05;;;;;;;;;;5061058;28;20051;-74
2022/03/27 09:24:39;;;;;;;18.98;11.20;;;;;;;;;;5063775;28;20039;-74
2022/03/27 09:27:05;;;;;;;18.95;10.70;;;;;;;;;;5061910;28;20783;-74
2022/03/27 09:29:51;;;;;;;55.63;11.63;;;;;;;;;;5061441;28;20143;-75
2022/03/27 09:32:27;;;;;;;15.45;8.50;;;;;;;;;;5061034;28;20029;-75
2022/03/27 09:35:01;;;;;;;23.80;8.70;;;;;;;;;;5067493;28;20036;-78
2022/03/27 09:37:27;;;;;;;;;;;;;;;;;;5061906;28;20048;-74
2022/03/27 09:39:56;;;;;;;16.55;8.55;;;;;;;;;;5064792;28;19908;-74
2022/03/27 09:42:23;;;;;;;16.85;8.40;;;;;;;;;;5058387;28;20032;-74
2022/03/27 09:44:50;;;;;;;14.65;7.70;;;;;;;;;;5055098;28;20017;-74
2022/03/27 09:47:16;;;;;;;10.00;7.32;;;;;;;;;;5059951;28;20028;-75
2022/03/27 09:49:47;;;;;;;13.40;7.47;;;;;;;;;;5065079;28;20021;-72
2022/03/27 09:52:13;;;;;;;14.10;7.65;;;;;;;;;;5053969;28;20539;-71
2022/03/27 09:54:58;;;;;;;16.48;8.25;;;;;;;;;;5061395;28;20036;-71
2022/03/27 09:57:24;;;;;;;15.40;7.55;;;;;;;;;;5064967;28;20036;-79
2022/03/27 09:59:51;;;;;;;13.15;8.15;;;;;;;;;;5072301;28;20017;-74
2022/03/27 10:02:22;;;;;;;14.23;7.75;;;;;;;;;;5058488;28;20039;-89
2022/03/27 10:04:52;;;;;;;21.65;9.88;;;;;;;;;;5056649;28;20478;-85
2022/03/27 10:07:23;;;;;;;10.98;7.63;;;;;;;;;;5058947;28;20028;-73
2022/03/27 10:09:51;;;;;;;13.35;7.40;;;;;;;;;;5059583;28;20027;-72
2022/03/27 10:12:17;;;;;;;10.23;7.32;;;;;;;;;;5065017;28;20145;-75
2022/03/27 10:14:44;;;;;;;15.93;8.77;;;;;;;;;;5055377;28;20033;-73
2022/03/27 10:17:11;;;;;;;13.63;7.22;;;;;;;;;;5057053;28;20098;-74
2022/03/27 10:19:50;;;;;;;20.67;7.70;;;;;;;;;;5060142;28;20025;-74
2022/03/27 10:22:20;;;;;;;11.10;7.05;;;;;;;;;;5062264;28;20390;-78
2022/03/27 10:24:47;;;;;;;12.27;7.22;;;;;;;;;;5066205;28;20079;-73
2022/03/27 10:27:14;;;;;;;13.68;6.90;;;;;;;;;;5073944;28;20103;-95
2022/03/27 10:29:40;;;;;;;11.75;6.85;;;;;;;;;;5072671;28;20401;-75
2022/03/27 10:32:09;;;;;;;10.32;6.30;;;;;;;;;;5061256;28;20060;-83
2022/03/27 10:34:37;;;;;;;9.60;6.75;;;;;;;;;;5066284;28;20066;-78
2022/03/27 10:37:03;;;;;;;13.60;7.03;;;;;;;;;;5059270;28;20036;-78
2022/03/27 10:39:31;;;;;;;13.55;6.78;;;;;;;;;;5064226;28;20031;-75
2022/03/27 10:42:03;;;;;;;34.88;7.78;;;;;;;;;;5061693;28;20052;-75
2022/03/27 10:44:42;;;;;;;12.00;6.55;;;;;;;;;;5059612;28;20017;-76
2022/03/27 10:47:12;;;;;;;14.77;6.57;;;;;;;;;;5058237;28;20028;-75
2022/03/27 10:49:38;;;;;;;9.90;6.38;;;;;;;;;;5064093;28;20158;-74
2022/03/27 10:52:04;;;;;;;17.35;6.28;;;;;;;;;;5065812;28;20039;-75
2022/03/27 10:54:31;;;;;;;11.82;6.25;;;;;;;;;;5066168;28;20021;-71
2022/03/27 10:56:58;;;;;;;10.93;6.72;;;;;;;;;;5065292;28;20446;-79
2022/03/27 10:59:28;;;;;;;13.95;6.35;;;;;;;;;;5060309;28;20373;-76
2022/03/27 11:02:04;;;;;;;11.63;6.30;;;;;;;;;;5065549;28;20044;-74
2022/03/27 11:04:41;;;;;;;24.25;6.90;;;;;;;;;;5060241;28;20053;-79
2022/03/27 11:07:20;;;;;;;18.60;6.30;;;;;;;;;;5080861;28;20045;-75
2022/03/27 11:09:46;;;;;;;9.93;6.30;;;;;;;;;;5062297;28;20029;-75
2022/03/27 11:12:29;;;;;;;10.15;6.40;;;;;;;;;;5066296;28;20032;-76
2022/03/27 11:14:59;;;;;;;16.15;5.93;;;;;;;;;;5063498;28;20124;-77
2022/03/27 11:17:40;;;;;;;8.35;4.78;;;;;;;;;;5062038;28;20038;-80
2022/03/27 11:20:26;;;;;;;10.52;5.35;;;;;;;;;;5066361;28;20025;-74
2022/03/27 11:22:57;;;;;;;10.82;5.50;;;;;;;;;;4998971;28;20062;-75
2022/03/27 11:25:27;;;;;;;10.40;4.88;;;;;;;;;;5000568;28;20133;-74
2022/03/27 11:27:56;;;;;;;12.23;5.50;;;;;;;;;;5004820;28;20496;-74
2022/03/27 11:30:22;;;;;;;10.00;4.93;;;;;;;;;;5003047;28;20093;-79
2022/03/27 11:33:09;;;;;;;10.52;5.45;;;;;;;;;;4986080;28;20025;-74
2022/03/27 11:35:55;;;;;;;8.15;5.90;;;;;;;;;;5416390;22;20060;-73
2022/03/27 11:38:22;;;;;;;9.80;5.05;;;;;;;;;;5030650;28;20037;-74
2022/03/27 11:40:48;;;;;;;9.30;5.03;;;;;;;;;;5033040;28;20100;-75
2022/03/27 11:43:31;;;;;;;7.78;5.20;;;;;;;;;;5035094;28;20478;-73
2022/03/27 11:45:58;;;;;;;9.63;5.67;;;;;;;;;;5043776;28;20479;-72
2022/03/27 11:48:31;;;;;;;9.88;5.40;;;;;;;;;;5038324;28;20083;-76
2022/03/27 11:51:32;;;;;;;19.77;5.82;;;;;;;;;;5038974;28;20533;-75
2022/03/27 11:54:28;;;;;;;7.15;5.18;;;;;;;;;;5041527;28;20061;-73
2022/03/27 11:57:11;;;;;;;11.02;5.15;;;;;;;;;;5060765;28;20052;-78
2022/03/27 12:00:03;;;;;;;8.47;5.00;;;;;;;;;;5059605;28;20018;-73
2022/03/27 12:02:51;;;;;;;8.63;5.00;;;;;;;;;;5048878;28;20056;-72
2022/03/27 12:08:04;;;;;;;8.40;4.65;;;;;;;;;;5034174;28;19917;-70
2022/03/27 12:10:59;;;;;;;;;;;;;;;;;;;;;
2022/03/27 12:13:27;;;;;;;11.45;4.55;;;;;;;;;;5036337;28;20136;-76
2022/03/27 12:15:54;;;;;;;10.23;4.22;;;;;;;;;;5032738;28;21322;-72
2022/03/27 12:18:38;;;;;;;8.18;4.57;;;;;;;;;;5035227;28;20092;-76
2022/03/27 12:21:10;;;;;;;;;;;;;;;;;;5040462;28;20029;-77
2022/03/27 12:24:02;;;;;;;10.30;4.47;;;;;;;;;;5029150;28;20642;-74
2022/03/27 12:32:16;;;;;;;11.07;4.43;;;;;;;;;;5031837;28;20446;-76
2022/03/27 12:34:43;;;;;;;12.18;4.57;;;;;;;;;;5018105;28;20045;-77
2022/03/27 12:37:35;;;;;;;9.55;4.20;;;;;;;;;;5048211;28;20049;-74
2022/03/27 12:40:07;;;;;;;9.63;3.90;;;;;;;;;;5064904;28;20063;-76
2022/03/27 12:42:43;;;;;;;10.02;4.50;;;;;;;;;;5052091;28;20033;-74
2022/03/27 12:45:10;;;;;;;11.05;4.50;;;;;;;;;;5033260;28;20041;-74
2022/03/27 12:47:36;;;;;;;10.80;4.43;;;;;;;;;;5056140;28;20025;-74
2022/03/27 12:50:09;;;;;;;7.28;4.05;;;;;;;;;;5059679;28;20033;-76
2022/03/27 12:52:52;;;;;;;8.07;4.30;;;;;;;;;;5061071;28;20047;-76
2022/03/27 12:55:19;;;;;;;8.13;4.38;;;;;;;;;;5055702;28;20121;-76
2022/03/27 12:57:52;;;;;;;6.25;4.35;;;;;;;;;;5054122;28;20175;-75
2022/03/27 13:00:19;;;;;;;14.65;5.22;;;;;;;;;;5054275;28;20021;-77
2022/03/27 13:02:45;;;;;;;7.85;4.95;;;;;;;;;;5052379;28;20030;-75
2022/03/27 13:05:11;;;;;;;6.45;4.53;;;;;;;;;;5046533;28;20023;-74
2022/03/27 13:07:57;;;;;;;7.95;4.40;;;;;;;;;;5047421;28;20017;-74
2022/03/27 13:10:23;;;;;;;9.07;5.22;;;;;;;;;;5055578;28;20555;-75
2022/03/27 13:13:00;;;;;;;10.82;4.55;;;;;;;;;;5049169;28;20116;-74
2022/03/27 13:15:35;;;;;;;8.88;4.88;;;;;;;;;;5033829;28;20032;-74
2022/03/27 13:18:08;;;;;;;20.10;5.00;;;;;;;;;;5054569;28;20068;-73
2022/03/27 13:20:34;;;;;;;7.97;4.72;;;;;;;;;;5054351;28;20127;-73
2022/03/27 13:23:01;;;;;;;6.97;4.13;;;;;;;;;;5054873;28;20406;-72
2022/03/27 13:25:27;;;;;;;10.02;5.13;;;;;;;;;;5055496;28;20017;-72
2022/03/27 13:27:53;;;;;;;7.40;4.90;;;;;;;;;;5055065;28;20537;-74
2022/03/27 13:30:19;;;;;;;7.43;4.30;;;;;;;;;;5054151;28;20532;-71
2022/03/27 13:32:45;;;;;;;8.35;5.00;;;;;;;;;;5054975;28;20032;-72
2022/03/27 13:35:12;;;;;;;17.35;4.95;;;;;;;;;;5054457;28;20435;-73
2022/03/27 13:37:38;;;;;;;11.10;5.00;;;;;;;;;;5054700;28;20055;-73
2022/03/27 13:40:05;;;;;;;6.18;4.45;;;;;;;;;;5054058;28;20024;-73
2022/03/27 13:45:17;;;;;;;15.73;4.95;;;;;;;;;;5054958;28;20502;-71
2022/03/27 13:47:43;;;;;;;8.98;4.97;;;;;;;;;;5054708;28;20028;-72
2022/03/27 13:50:09;;;;;;;15.93;5.10;;;;;;;;;;5055025;28;20479;-73
2022/03/27 13:52:35;;;;;;;10.10;4.65;;;;;;;;;;5053329;28;20120;-73
2022/03/27 13:55:02;;;;;;;8.60;5.13;;;;;;;;;;5054889;28;20376;-73
2022/03/27 13:57:28;;;;;;;10.32;4.95;;;;;;;;;;5054609;28;20033;-73
2022/03/27 13:59:56;;;;;;;7.72;4.85;;;;;;;;;;5056283;28;20029;-73
2022/03/27 14:02:23;;;;;;;7.28;5.25;;;;;;;;;;5050294;28;20040;-71
2022/03/27 14:04:51;;;;;;;6.60;4.93;;;;;;;;;;5054493;28;20025;-72
2022/03/27 14:07:17;;;;;;;11.15;5.50;;;;;;;;;;5054686;28;20056;-72
2022/03/27 14:09:44;;;;;;;10.00;4.95;;;;;;;;;;5054186;28;20025;-75
2022/03/27 14:12:10;;;;;;;7.60;4.75;;;;;;;;;;5055601;28;20028;-72
2022/03/27 14:14:37;;;;;;;7.20;4.55;;;;;;;;;;5054737;28;20032;-72
2022/03/27 14:17:03;;;;;;;23.95;5.32;;;;;;;;;;5052052;28;20041;-73
2022/03/27 14:19:29;;;;;;;8.32;5.05;;;;;;;;;;5054790;28;20032;-73
2022/03/27 14:21:56;;;;;;;6.90;4.30;;;;;;;;;;5054185;28;20032;-73
2022/03/27 14:24:22;;;;;;;6.07;4.15;;;;;;;;;;5053504;28;20036;-73
2022/03/27 14:26:48;;;;;;;6.63;4.05;;;;;;;;;;5053120;28;20024;-72
2022/03/27 14:29:16;;;;;;;7.85;4.30;;;;;;;;;;5048756;28;20025;-73
2022/03/27 14:31:43;;;;;;;9.65;4.20;;;;;;;;;;5051332;28;20032;-71
2022/03/27 14:34:10;;;;;;;8.05;4.57;;;;;;;;;;5052580;28;20032;-73
2022/03/27 14:36:36;;;;;;;6.30;4.55;;;;;;;;;;5049576;28;20110;-74
2022/03/27 14:39:04;;;;;;;7.38;4.50;;;;;;;;;;5056870;28;20032;-75
2022/03/27 14:41:33;;;;;;;6.00;4.40;;;;;;;;;;5034816;28;20063;-74
2022/03/27 14:44:09;;;;;;;8.00;4.72;;;;;;;;;;5043523;28;20029;-77
2022/03/27 14:46:39;;;;;;;8.52;4.63;;;;;;;;;;5062968;28;20025;-73
2022/03/27 14:49:05;;;;;;;6.90;4.60;;;;;;;;;;5060597;28;20033;-74
2022/03/27 14:51:40;;;;;;;6.88;4.00;;;;;;;;;;5050602;28;20044;-74